createdAt,value
2022-12-10T00:01:35.985Z,989.98
2022-12-10T00:06:35.924Z,989.93
2022-12-10T00:11:35.846Z,989.93
2022-12-10T00:16:35.869Z,989.94
2022-12-10T00:21:35.733Z,989.91
2022-12-10T00:26:35.665Z,989.91
2022-12-10T00:31:35.750Z,989.87
2022-12-10T00:36:35.539Z,989.97
2022-12-10T00:41:35.479Z,989.96
2022-12-10T00:46:35.476Z,989.97
2022-12-10T00:51:35.358Z,990.02
2022-12-10T00:56:35.288Z,990.09
2022-12-10T01:01:35.217Z,990.12
2022-12-10T01:06:35.164Z,990.16
2022-12-10T01:11:35.092Z,990.13
2022-12-10T01:16:35.116Z,990.11
2022-12-10T01:21:34.965Z,990.10
2022-12-10T01:26:34.908Z,990.09
2022-12-10T01:31:34.884Z,990.10
2022-12-10T01:36:34.779Z,990.07
2022-12-10T01:41:34.718Z,990.16
2022-12-10T01:46:34.659Z,990.16
2022-12-10T01:51:34.592Z,990.13
2022-12-10T01:56:34.522Z,990.14
2022-12-10T02:01:34.467Z,990.19
2022-12-10T02:06:34.409Z,990.22
2022-12-10T02:11:34.336Z,990.23
2022-12-10T02:16:34.392Z,990.21
2022-12-10T02:21:34.194Z,990.16
2022-12-10T02:26:34.138Z,990.19
2022-12-10T02:31:34.090Z,990.23
2022-12-10T02:36:34.012Z,990.18
2022-12-10T02:41:33.949Z,990.20
2022-12-10T02:46:33.882Z,990.16
2022-12-10T02:51:33.817Z,990.24
2022-12-10T02:56:33.756Z,990.24
2022-12-10T03:01:33.754Z,990.23
2022-12-10T03:06:33.628Z,990.36
2022-12-10T03:11:33.565Z,990.40
2022-12-10T03:16:33.541Z,990.32
2022-12-10T03:21:33.437Z,990.40
2022-12-10T03:26:33.372Z,990.40
2022-12-10T03:31:33.308Z,990.37
2022-12-10T03:36:33.243Z,990.41
2022-12-10T03:41:33.171Z,990.33
2022-12-10T03:46:33.115Z,990.30
2022-12-10T03:51:33.048Z,990.29
2022-12-10T03:56:32.985Z,990.33
2022-12-10T04:01:33.001Z,990.38
2022-12-10T04:06:32.860Z,990.40
2022-12-10T04:11:32.787Z,990.49
2022-12-10T04:16:32.842Z,990.46
2022-12-10T04:21:32.669Z,990.43
2022-12-10T04:26:32.606Z,990.40
2022-12-10T04:31:32.538Z,990.29
2022-12-10T04:36:32.471Z,990.35
2022-12-10T04:41:32.410Z,990.16
2022-12-10T04:46:32.390Z,990.23
2022-12-10T04:51:32.283Z,990.28
2022-12-10T04:56:32.212Z,990.25
2022-12-10T05:01:32.274Z,990.28
2022-12-10T05:06:32.082Z,990.20
2022-12-10T05:11:32.016Z,990.25
2022-12-10T05:16:31.956Z,990.26
2022-12-10T05:21:31.883Z,990.24
2022-12-10T05:26:31.827Z,990.31
2022-12-10T05:31:31.759Z,990.39
2022-12-10T05:36:31.701Z,990.41
2022-12-10T05:41:31.629Z,990.52
2022-12-10T05:46:31.661Z,990.58
2022-12-10T05:51:31.502Z,990.64
2022-12-10T05:56:31.459Z,990.65
2022-12-10T06:01:31.373Z,990.67
2022-12-10T06:06:31.326Z,990.68
2022-12-10T06:11:31.244Z,990.61
2022-12-10T06:16:31.260Z,990.71
2022-12-10T06:21:31.117Z,990.76
2022-12-10T06:26:31.060Z,990.81
2022-12-10T06:31:31.029Z,990.90
2022-12-10T06:36:30.931Z,990.92
2022-12-10T06:41:30.860Z,990.96
2022-12-10T06:46:30.844Z,991.00
2022-12-10T06:51:30.732Z,991.04
2022-12-10T06:56:30.673Z,991.03
2022-12-10T07:01:30.633Z,991.14
2022-12-10T07:06:30.558Z,991.21
2022-12-10T07:11:30.475Z,991.22
2022-12-10T07:16:30.476Z,991.23
2022-12-10T07:21:30.344Z,991.25
2022-12-10T07:26:30.299Z,991.23
2022-12-10T07:31:30.233Z,991.17
2022-12-10T07:36:30.171Z,991.16
2022-12-10T07:41:30.089Z,991.23
2022-12-10T07:46:30.148Z,991.29
2022-12-10T07:51:29.961Z,991.29
2022-12-10T07:56:29.923Z,991.33
2022-12-10T08:01:29.834Z,991.39
2022-12-10T08:06:29.786Z,991.46
2022-12-10T08:11:29.714Z,991.52
2022-12-10T08:16:29.762Z,991.53
2022-12-10T08:21:29.576Z,991.57
2022-12-10T08:26:29.520Z,991.57
2022-12-10T08:31:34.336Z,991.63
2022-12-10T08:36:29.394Z,991.72
2022-12-10T08:41:29.323Z,991.69
2022-12-10T08:46:29.265Z,991.71
2022-12-10T08:51:29.204Z,991.68
2022-12-10T08:56:29.137Z,991.68
2022-12-10T09:01:29.100Z,991.73
2022-12-10T09:06:29.018Z,991.76
2022-12-10T09:11:28.935Z,991.72
2022-12-10T09:16:28.980Z,991.75
2022-12-10T09:21:28.808Z,991.86
2022-12-10T09:26:28.761Z,991.84
2022-12-10T09:31:28.793Z,991.89
2022-12-10T09:36:33.421Z,991.87
2022-12-10T09:41:28.552Z,991.89
2022-12-10T09:46:28.498Z,991.89
2022-12-10T09:51:28.424Z,991.82
2022-12-10T09:56:28.371Z,991.82
2022-12-10T10:01:28.365Z,991.79
2022-12-10T10:06:28.238Z,991.84
2022-12-10T10:11:28.169Z,991.89
2022-12-10T10:16:28.132Z,991.87
2022-12-10T10:21:28.037Z,991.82
2022-12-10T10:26:28.235Z,991.84
2022-12-10T10:31:27.910Z,991.80
2022-12-10T10:36:27.855Z,991.86
2022-12-10T10:41:27.784Z,991.79
2022-12-10T10:46:27.796Z,991.81
2022-12-10T10:51:27.655Z,991.78
2022-12-10T10:56:27.600Z,991.76
2022-12-10T11:01:27.665Z,991.73
2022-12-10T11:06:27.474Z,991.77
2022-12-10T11:11:27.409Z,991.83
2022-12-10T11:16:27.416Z,991.75
2022-12-10T11:21:27.281Z,991.61
2022-12-10T11:26:27.213Z,991.67
2022-12-10T11:31:27.154Z,991.77
2022-12-10T11:36:27.087Z,991.87
2022-12-10T11:41:27.014Z,991.85
2022-12-10T11:46:27.018Z,991.86
2022-12-10T11:51:26.885Z,991.82
2022-12-10T11:56:26.831Z,991.81
2022-12-10T12:01:26.757Z,991.74
2022-12-10T12:06:26.719Z,991.77
2022-12-10T12:11:26.628Z,991.74
2022-12-10T12:16:26.638Z,991.83
2022-12-10T12:21:26.510Z,991.83
2022-12-10T12:26:26.447Z,991.88
2022-12-10T12:31:26.436Z,991.82
2022-12-10T12:36:26.314Z,991.84
2022-12-10T12:41:26.252Z,991.95
2022-12-10T12:46:26.244Z,992.00
2022-12-10T12:51:26.125Z,991.95
2022-12-10T12:56:26.057Z,992.00
2022-12-10T13:01:26.029Z,992.03
2022-12-10T13:06:25.932Z,991.96
2022-12-10T13:11:25.866Z,991.99
2022-12-10T13:16:25.857Z,992.03
2022-12-10T13:21:25.736Z,992.05
2022-12-10T13:26:25.678Z,992.07
2022-12-10T13:31:25.663Z,992.06
2022-12-10T13:36:25.547Z,992.14
2022-12-10T13:41:25.485Z,992.14
2022-12-10T13:46:25.484Z,992.17
2022-12-10T13:51:25.354Z,992.26
2022-12-10T13:56:25.284Z,992.31
2022-12-10T14:01:25.255Z,992.36
2022-12-10T14:06:25.157Z,992.36
2022-12-10T14:11:25.108Z,992.40
2022-12-10T14:16:25.123Z,992.38
2022-12-10T14:21:24.968Z,992.40
2022-12-10T14:26:24.908Z,992.44
2022-12-10T14:31:24.889Z,992.38
2022-12-10T14:36:24.778Z,992.40
2022-12-10T14:41:24.711Z,992.38
2022-12-10T14:46:24.718Z,992.40
2022-12-10T14:51:24.582Z,992.46
2022-12-10T14:56:24.521Z,992.50
2022-12-10T15:01:24.455Z,992.53
2022-12-10T15:06:24.385Z,992.57
2022-12-10T15:11:24.327Z,992.54
2022-12-10T15:16:24.308Z,992.63
2022-12-10T15:21:24.198Z,992.65
2022-12-10T15:26:24.127Z,992.68
2022-12-10T15:31:24.117Z,992.78
2022-12-10T15:36:23.996Z,992.76
2022-12-10T15:41:23.943Z,992.82
2022-12-10T15:46:23.870Z,992.88
2022-12-10T15:51:23.815Z,992.93
2022-12-10T15:56:23.802Z,993.01
2022-12-10T16:01:23.772Z,993.10
2022-12-10T16:06:23.814Z,993.18
2022-12-10T16:11:23.860Z,993.21
2022-12-10T16:16:23.499Z,993.19
2022-12-10T16:21:23.437Z,993.17
2022-12-10T16:26:23.355Z,993.21
2022-12-10T16:31:23.383Z,993.21
2022-12-10T16:36:23.229Z,993.19
2022-12-10T16:41:23.180Z,993.18
2022-12-10T16:46:23.144Z,993.20
2022-12-10T16:51:23.053Z,993.18
2022-12-10T16:56:22.971Z,993.17
2022-12-10T17:01:22.989Z,993.25
2022-12-10T17:06:22.844Z,993.20
2022-12-10T17:11:22.787Z,993.19
2022-12-10T17:16:22.807Z,993.26
2022-12-10T17:21:22.664Z,993.26
2022-12-10T17:26:22.588Z,993.24
2022-12-10T17:31:22.581Z,993.20
2022-12-10T17:36:22.458Z,993.26
2022-12-10T17:41:22.413Z,993.20
2022-12-10T17:46:22.385Z,993.30
2022-12-10T17:51:22.283Z,993.38
2022-12-10T17:56:22.204Z,993.40
2022-12-10T18:01:22.209Z,993.43
2022-12-10T18:06:22.074Z,993.43
2022-12-10T18:11:22.027Z,993.46
2022-12-10T18:16:21.989Z,993.47
2022-12-10T18:21:21.902Z,993.63
2022-12-10T18:26:21.823Z,993.63
2022-12-10T18:31:21.814Z,993.60
2022-12-10T18:36:24.702Z,993.61
2022-12-10T18:41:21.650Z,993.56
2022-12-10T18:46:21.625Z,993.55
2022-12-10T18:51:21.518Z,993.58
2022-12-10T18:56:21.438Z,993.57
2022-12-10T19:01:21.426Z,993.58
2022-12-10T19:06:21.308Z,993.62
2022-12-10T19:11:21.252Z,993.65
2022-12-10T19:16:21.221Z,993.66
2022-12-10T19:21:21.126Z,993.64
2022-12-10T19:26:21.055Z,993.67
2022-12-10T19:31:20.996Z,993.64
2022-12-10T19:36:20.926Z,993.66
2022-12-10T19:41:20.879Z,993.72
2022-12-10T19:46:20.881Z,993.68
2022-12-10T19:51:20.773Z,993.70
2022-12-10T19:56:20.672Z,993.75
2022-12-10T20:01:20.628Z,993.71
2022-12-10T20:06:20.541Z,993.74
2022-12-10T20:11:20.498Z,993.77
2022-12-10T20:16:20.462Z,993.76
2022-12-10T20:21:20.357Z,993.85
2022-12-10T20:26:20.286Z,993.82
2022-12-10T20:31:20.295Z,993.84
2022-12-10T20:36:20.159Z,993.81
2022-12-10T20:41:20.105Z,993.79
2022-12-10T20:46:20.241Z,993.77
2022-12-10T20:51:19.973Z,993.72
2022-12-10T20:56:19.907Z,993.77
2022-12-10T21:01:19.890Z,993.79
2022-12-10T21:06:19.777Z,993.85
2022-12-10T21:11:19.720Z,993.85
2022-12-10T21:16:19.665Z,993.82
2022-12-10T21:21:19.593Z,993.80
2022-12-10T21:26:19.527Z,993.84
2022-12-10T21:31:19.523Z,993.87
2022-12-10T21:36:19.396Z,993.78
2022-12-10T21:41:19.345Z,993.75
2022-12-10T21:46:19.370Z,993.79
2022-12-10T21:51:19.410Z,993.71
2022-12-10T21:56:19.150Z,993.68
2022-12-10T22:01:19.132Z,993.75
2022-12-10T22:06:19.025Z,993.78
2022-12-10T22:11:18.955Z,993.78
2022-12-10T22:16:18.957Z,993.84
2022-12-10T22:21:18.829Z,993.92
2022-12-10T22:26:18.760Z,993.89
2022-12-10T22:31:18.780Z,993.87
2022-12-10T22:36:18.634Z,993.78
2022-12-10T22:41:18.578Z,993.80
2022-12-10T22:46:18.650Z,993.81
2022-12-10T22:51:18.452Z,993.90
2022-12-10T22:56:18.379Z,993.81
2022-12-10T23:01:18.469Z,993.79
2022-12-10T23:06:18.265Z,993.88
2022-12-10T23:11:18.194Z,993.82
2022-12-10T23:16:18.242Z,993.86
2022-12-10T23:21:18.069Z,993.74
2022-12-10T23:26:18.009Z,993.80
2022-12-10T23:31:17.984Z,993.79
2022-12-10T23:36:17.890Z,993.74
2022-12-10T23:41:17.816Z,993.76
2022-12-10T23:46:17.806Z,993.73
2022-12-10T23:51:17.689Z,993.70
2022-12-10T23:56:17.619Z,993.66
